Time;durP1;ratioP1;P1;durP2;ratioP2;P2;SDS_P1;SDS_P2;PMS_P1;PMS_P2;Temp;Humidity;BMP_temperature;BMP_pressure;BME280_temperature;BME280_humidity;BME280_pressure;Samples;Min_cycle;Max_cycle;Signal;HPM_P1;HPM_P2
2023/12/04 00:01:01;;;;;;;6.40;5.73;;;;;;;-2.82;100.00;98665.69;4141546;28;20229;-47
2023/12/04 00:03:03;;;;;;;6.37;5.87;;;;;;;-2.79;100.00;98648.47;4141869;28;20209;-47
2023/12/04 00:05:06;;;;;;;6.70;6.20;;;;;;;-2.81;100.00;98640.59;4141007;28;20205;-47
2023/12/04 00:07:08;;;;;;;6.43;5.90;;;;;;;-2.83;100.00;98637.25;4139144;28;20219;-47
2023/12/04 00:09:09;;;;;;;8.80;5.80;;;;;;;-2.76;100.00;98634.75;4140712;28;20213;-46
2023/12/04 00:11:11;;;;;;;10.73;9.73;;;;;;;-2.76;100.00;98632.06;4133226;28;20218;-46
2023/12/04 00:13:13;;;;;;;6.53;6.13;;;;;;;-2.68;100.00;98624.09;4139739;28;21156;-46
2023/12/04 00:15:15;;;;;;;6.60;6.17;;;;;;;-2.83;100.00;98623.03;4141728;28;20279;-46
2023/12/04 00:17:17;;;;;;;6.83;5.50;;;;;;;-2.84;100.00;98624.88;4141751;28;20212;-47
2023/12/04 00:19:18;;;;;;;5.43;4.93;;;;;;;-2.88;100.00;98617.34;4141010;28;21173;-46
2023/12/04 00:21:20;;;;;;;6.27;5.77;;;;;;;-2.92;100.00;98611.50;4141434;28;20264;-47
2023/12/04 00:23:22;;;;;;;9.23;5.67;;;;;;;-2.91;100.00;98615.00;4144752;28;20221;-46
2023/12/04 00:25:23;;;;;;;5.73;5.20;;;;;;;-2.87;100.00;98608.31;4148115;28;20313;-47
2023/12/04 00:27:26;;;;;;;5.90;5.37;;;;;;;-2.82;100.00;98600.66;4145561;28;20300;-46
2023/12/04 00:29:28;;;;;;;7.33;6.70;;;;;;;-2.96;100.00;98593.22;4144875;28;20280;-46
2023/12/04 00:31:31;;;;;;;8.10;7.47;;;;;;;-3.02;100.00;98600.06;4148310;28;20216;-47
2023/12/04 00:33:33;;;;;;;6.03;5.60;;;;;;;-3.04;100.00;98596.75;4145081;28;20244;-47
2023/12/04 00:35:35;;;;;;;7.10;6.40;;;;;;;-3.03;100.00;98593.06;4134930;28;20233;-46
2023/12/04 00:37:38;;;;;;;6.87;6.27;;;;;;;-3.04;100.00;98582.50;4139731;28;20716;-47
2023/12/04 00:39:40;;;;;;;7.10;6.60;;;;;;;-3.07;100.00;98591.69;4140392;28;20209;-47
2023/12/04 00:41:42;;;;;;;6.20;5.83;;;;;;;-3.06;100.00;98587.19;4139537;28;20721;-47
2023/12/04 00:43:43;;;;;;;5.90;5.50;;;;;;;-3.06;100.00;98592.53;4140189;28;20610;-46
2023/12/04 00:45:45;;;;;;;7.00;6.47;;;;;;;-3.05;100.00;98584.38;4139781;28;20705;-46
2023/12/04 00:47:47;;;;;;;5.37;4.97;;;;;;;-2.95;100.00;98578.88;4140820;28;20325;-46
2023/12/04 00:49:49;;;;;;;7.83;7.23;;;;;;;-2.99;100.00;98582.84;4141229;28;20252;-46
2023/12/04 00:51:50;;;;;;;10.63;6.20;;;;;;;-2.99;100.00;98582.84;4142283;28;20209;-46
2023/12/04 00:53:53;;;;;;;7.63;6.53;;;;;;;-3.04;100.00;98579.84;4143279;28;20643;-46
2023/12/04 00:55:55;;;;;;;6.63;5.23;;;;;;;-3.04;100.00;98586.03;4139636;28;20229;-47
2023/12/04 00:57:56;;;;;;;7.97;7.33;;;;;;;-3.01;100.00;98579.53;4141547;28;20906;-47
2023/12/04 00:59:58;;;;;;;17.17;7.20;;;;;;;-3.06;100.00;98581.84;4143874;28;20299;-50
2023/12/04 01:02:00;;;;;;;8.87;8.07;;;;;;;-3.12;100.00;98585.16;4146155;28;20239;-46
2023/12/04 01:04:03;;;;;;;7.33;6.70;;;;;;;-3.15;100.00;98582.84;4145957;28;20224;-47
2023/12/04 01:06:05;;;;;;;9.37;8.57;;;;;;;-3.17;100.00;98579.47;4140689;28;20221;-46
2023/12/04 01:08:06;;;;;;;7.67;6.93;;;;;;;-3.21;100.00;98578.13;4143663;28;20209;-47
2023/12/04 01:10:08;;;;;;;7.50;6.77;;;;;;;-3.13;100.00;98581.63;4143813;28;20213;-47
2023/12/04 01:12:10;;;;;;;8.77;7.40;;;;;;;-3.10;100.00;98569.78;4125267;28;20715;-46
2023/12/04 01:14:12;;;;;;;7.63;7.03;;;;;;;-2.95;100.00;98584.22;4141583;28;20221;-47
2023/12/04 01:16:14;;;;;;;7.47;6.77;;;;;;;-2.99;100.00;98574.84;4149431;28;21218;-48
2023/12/04 01:18:16;;;;;;;7.87;5.57;;;;;;;-3.04;100.00;98566.44;4145817;28;20594;-46
2023/12/04 01:20:18;;;;;;;9.77;8.97;;;;;;;-3.14;100.00;98568.44;4148326;28;20201;-47
2023/12/04 01:22:20;;;;;;;5.63;5.10;;;;;;;-3.20;100.00;98566.44;4140726;28;20229;-48
2023/12/04 01:24:21;;;;;;;6.37;5.87;;;;;;;-3.26;100.00;98567.06;4140985;28;20213;-47
2023/12/04 01:26:23;;;;;;;6.37;5.87;;;;;;;-3.28;100.00;98553.03;4143841;28;20224;-46
2023/12/04 01:28:25;;;;;;;7.00;6.33;;;;;;;-3.28;100.00;98558.38;4122426;28;20249;-47
2023/12/04 01:30:27;;;;;;;5.53;5.13;;;;;;;-3.32;100.00;98551.66;4136900;28;20214;-47
2023/12/04 01:32:28;;;;;;;7.50;5.70;;;;;;;-3.30;100.00;98550.50;4141544;28;20252;-46
2023/12/04 01:34:30;;;;;;;7.27;6.77;;;;;;;-3.29;100.00;98551.34;4141241;28;20291;-46
2023/12/04 01:36:32;;;;;;;6.60;6.20;;;;;;;-3.31;100.00;98539.97;4139409;28;20236;-46
2023/12/04 01:38:34;;;;;;;7.30;6.70;;;;;;;-3.35;100.00;98538.66;4142094;28;20207;-49
2023/12/04 01:40:35;;;;;;;10.80;6.23;;;;;;;-3.40;100.00;98535.59;4146902;28;20662;-46
2023/12/04 01:42:37;;;;;;;5.97;5.57;;;;;;;-3.37;100.00;98535.28;4130643;28;20205;-48
2023/12/04 01:44:39;;;;;;;5.40;5.00;;;;;;;-3.42;100.00;98529.56;4141504;28;20730;-47
2023/12/04 01:46:42;;;;;;;10.80;4.90;;;;;;;-3.44;100.00;98518.19;4119289;28;20231;-49
2023/12/04 01:48:45;;;;;;;7.47;5.77;;;;;;;-3.47;100.00;98523.88;4143959;28;20677;-46
2023/12/04 01:50:47;;;;;;;6.60;6.10;;;;;;;-3.41;100.00;98507.19;4140539;28;20391;-47
2023/12/04 01:52:49;;;;;;;4.40;4.10;;;;;;;-3.43;100.00;98509.19;4161891;28;20259;-46
2023/12/04 01:54:55;;;;;;;11.77;6.67;;;;;;;-3.47;100.00;98505.16;4146729;28;20224;-47
2023/12/04 01:56:57;;;;;;;8.33;7.67;;;;;;;-3.53;100.00;98508.50;4131019;28;20212;-47
2023/12/04 01:58:59;;;;;;;5.33;4.83;;;;;;;-3.56;100.00;98503.47;4124575;28;20209;-47
2023/12/04 02:01:02;;;;;;;6.73;6.23;;;;;;;-3.57;100.00;98509.81;4126697;28;20234;-47
2023/12/04 02:03:04;;;;;;;3.53;3.33;;;;;;;-3.54;100.00;98504.16;4131184;28;20574;-46
2023/12/04 02:05:08;;;;;;;6.63;5.87;;;;;;;-3.55;100.00;98505.16;4128853;28;20726;-47
2023/12/04 02:07:09;;;;;;;6.57;6.03;;;;;;;-3.53;100.00;98503.97;4123668;28;20220;-47
2023/12/04 02:09:13;;;;;;;15.60;7.73;;;;;;;-3.50;100.00;98492.13;4129024;28;20607;-47
2023/12/04 02:11:14;;;;;;;10.63;7.53;;;;;;;-3.47;100.00;98499.81;4145703;28;20208;-48
2023/12/04 02:13:16;;;;;;;6.77;6.27;;;;;;;-3.54;100.00;98496.13;4148334;28;20238;-49
2023/12/04 02:15:18;;;;;;;6.20;5.90;;;;;;;-3.51;100.00;98490.44;4145256;28;20229;-46
2023/12/04 02:17:20;;;;;;;8.77;5.57;;;;;;;-3.55;100.00;98489.13;4128206;28;21107;-47
2023/12/04 02:19:21;;;;;;;5.80;5.37;;;;;;;-3.56;100.00;98487.41;4130490;28;20601;-49
2023/12/04 02:21:23;;;;;;;7.53;6.87;;;;;;;-3.56;100.00;98482.06;4128528;28;20222;-50
2023/12/04 02:23:25;;;;;;;7.23;6.60;;;;;;;-3.54;100.00;98474.75;4129912;28;20257;-47
2023/12/04 02:25:27;;;;;;;5.87;5.37;;;;;;;-3.53;100.00;98471.06;4127878;28;20633;-48
2023/12/04 02:27:41;;;;;;;6.90;6.33;;;;;;;-3.57;100.00;98462.53;4146952;28;20206;-46
2023/12/04 02:30:01;;;;;;;14.20;7.20;;;;;;;-3.57;100.00;98449.16;4128912;28;20217;-46
2023/12/04 02:32:04;;;;;;;7.20;6.60;;;;;;;-3.57;100.00;98453.66;4147401;28;20205;-46
2023/12/04 02:34:06;;;;;;;6.77;6.07;;;;;;;-3.60;100.00;98454.81;4128346;28;20210;-49
2023/12/04 02:36:09;;;;;;;8.13;7.53;;;;;;;-3.58;100.00;98457.34;4144293;28;20264;-47
2023/12/04 02:38:11;;;;;;;7.83;7.13;;;;;;;-3.59;100.00;98450.34;4143854;28;20275;-46
2023/12/04 02:40:13;;;;;;;6.03;5.73;;;;;;;-3.59;100.00;98439.63;4135717;28;20222;-48
2023/12/04 02:42:17;;;;;;;7.20;6.60;;;;;;;-3.59;100.00;98444.97;4153346;28;20260;-48
2023/12/04 02:44:18;;;;;;;6.07;5.63;;;;;;;-3.59;100.00;98431.63;4145675;28;20212;-46
2023/12/04 02:46:21;;;;;;;5.80;5.40;;;;;;;-3.61;100.00;98420.25;4142034;28;20605;-47
2023/12/04 02:48:22;;;;;;;7.37;6.93;;;;;;;-3.61;100.00;98423.75;4141138;28;20216;-47
2023/12/04 02:50:24;;;;;;;9.13;6.17;;;;;;;-3.64;100.00;98428.59;4145706;28;20288;-47
2023/12/04 02:52:26;;;;;;;7.00;6.37;;;;;;;-3.66;100.00;98422.59;4143847;28;20275;-47
2023/12/04 02:54:28;;;;;;;6.70;6.20;;;;;;;-3.66;100.00;98422.59;4145066;28;20214;-46
2023/12/04 02:56:30;;;;;;;7.07;6.53;;;;;;;-3.65;100.00;98414.41;4161140;28;20316;-47
2023/12/04 02:58:34;;;;;;;5.43;5.03;;;;;;;-3.63;100.00;98419.56;4144560;28;20479;-47
2023/12/04 03:00:36;;;;;;;6.67;6.07;;;;;;;-3.65;100.00;98413.56;4146360;28;20209;-46
2023/12/04 03:02:38;;;;;;;5.90;5.40;;;;;;;-3.66;100.00;98406.53;4145336;28;20228;-46
2023/12/04 03:04:39;;;;;;;7.83;7.30;;;;;;;-3.67;100.00;98415.56;4146681;28;20259;-47
2023/12/04 03:06:41;;;;;;;6.43;5.90;;;;;;;-3.70;100.00;98410.53;4144492;28;20224;-46
2023/12/04 03:08:43;;;;;;;7.03;6.33;;;;;;;-3.68;100.00;98416.56;4141593;28;20204;-47
2023/12/04 03:10:45;;;;;;;7.13;6.57;;;;;;;-3.68;100.00;98419.25;4145543;28;20201;-46
2023/12/04 03:12:46;;;;;;;6.90;6.40;;;;;;;-3.65;100.00;98418.91;4143629;28;20251;-46
2023/12/04 03:14:48;;;;;;;4.73;4.40;;;;;;;-3.59;100.00;98412.91;4143034;28;20825;-46
2023/12/04 03:16:50;;;;;;;6.20;5.70;;;;;;;-3.62;100.00;98418.56;4145481;28;21020;-47
2023/12/04 03:18:51;;;;;;;6.30;5.90;;;;;;;-3.59;100.00;98412.91;4142959;28;20816;-47
2023/12/04 03:20:53;;;;;;;7.10;6.57;;;;;;;-3.50;100.00;98414.59;4147831;28;20213;-46
2023/12/04 03:22:55;;;;;;;7.60;6.87;;;;;;;-3.78;100.00;98421.22;4143192;28;20289;-46
2023/12/04 03:24:56;;;;;;;7.00;6.30;;;;;;;-3.80;100.00;98416.03;4142579;28;20703;-46
2023/12/04 03:26:58;;;;;;;6.03;5.63;;;;;;;-3.64;100.00;98415.22;4145813;28;20248;-47
2023/12/04 03:29:00;;;;;;;6.13;5.63;;;;;;;-3.63;100.00;98422.25;4142374;28;20734;-47
2023/12/04 03:31:02;;;;;;;6.27;5.33;;;;;;;-3.62;100.00;98424.75;4134621;28;20905;-47
2023/12/04 03:33:04;;;;;;;6.50;5.93;;;;;;;-3.60;100.00;98424.59;4141332;28;20255;-46
2023/12/04 03:35:06;;;;;;;6.53;5.93;;;;;;;-3.57;100.00;98426.94;4144370;28;20209;-46
2023/12/04 03:37:08;;;;;;;6.83;6.43;;;;;;;-3.56;100.00;98428.59;4142563;28;20217;-47
2023/12/04 03:39:10;;;;;;;9.80;9.17;;;;;;;-3.42;100.00;98419.94;4145110;28;20213;-46
2023/12/04 03:41:15;;;;;;;7.30;6.70;;;;;;;-3.39;100.00;98423.16;4136768;28;20951;-47
2023/12/04 03:43:17;;;;;;;5.37;4.87;;;;;;;-3.52;100.00;98414.78;4134885;28;20606;-46
2023/12/04 03:45:18;;;;;;;6.17;5.57;;;;;;;-3.53;100.00;98412.25;4127607;28;20324;-47
2023/12/04 03:47:20;;;;;;;6.73;6.13;;;;;;;-3.36;100.00;98416.59;4141889;28;20244;-46
2023/12/04 03:49:22;;;;;;;5.67;5.37;;;;;;;-3.45;100.00;98410.44;4146039;28;20685;-48
2023/12/04 03:51:24;;;;;;;5.40;4.93;;;;;;;-3.46;100.00;98403.38;4136299;28;20241;-46
2023/12/04 03:53:26;;;;;;;7.60;6.93;;;;;;;-3.43;100.00;98407.56;4121302;28;20260;-46
2023/12/04 03:55:28;;;;;;;7.47;5.20;;;;;;;-3.49;100.00;98402.88;4141895;28;20224;-47
2023/12/04 03:57:30;;;;;;;6.30;5.70;;;;;;;-3.52;100.00;98405.91;4146261;28;20223;-46
2023/12/04 03:59:32;;;;;;;5.10;4.80;;;;;;;-3.54;100.00;98410.59;4133252;28;20690;-45
2023/12/04 04:01:34;;;;;;;5.73;5.33;;;;;;;-3.50;100.00;98411.91;4126594;28;20214;-46
2023/12/04 04:03:35;;;;;;;5.67;5.37;;;;;;;-3.44;100.00;98413.94;4147354;28;20569;-47
2023/12/04 04:05:37;;;;;;;7.47;6.00;;;;;;;-3.45;100.00;98410.44;4143719;28;20310;-47
2023/12/04 04:07:40;;;;;;;6.00;5.70;;;;;;;-3.46;100.00;98402.56;4142812;28;20209;-46
2023/12/04 04:09:42;;;;;;;5.20;4.70;;;;;;;-3.46;100.00;98407.91;4141746;28;20844;-48
2023/12/04 04:11:43;;;;;;;5.80;5.37;;;;;;;-3.42;100.00;98409.22;4141042;28;20594;-46
2023/12/04 04:13:45;;;;;;;6.00;5.60;;;;;;;-3.43;100.00;98407.56;4143822;28;20209;-48
2023/12/04 04:15:47;;;;;;;9.27;6.47;;;;;;;-3.54;100.00;98405.22;4143598;28;20228;-46
2023/12/04 04:17:48;;;;;;;11.13;8.13;;;;;;;-3.52;100.00;98419.25;4141237;28;20291;-48
2023/12/04 04:19:50;;;;;;;7.30;6.57;;;;;;;-3.51;100.00;98418.25;4144146;28;20699;-48
2023/12/04 04:21:52;;;;;;;8.57;6.77;;;;;;;-3.51;100.00;98415.59;4144182;28;20268;-46
2023/12/04 04:23:54;;;;;;;6.70;6.17;;;;;;;-3.50;100.00;98417.25;4151330;28;20316;-46
2023/12/04 04:25:55;;;;;;;6.63;6.13;;;;;;;-3.44;100.00;98421.94;4140925;28;20278;-47
2023/12/04 04:27:57;;;;;;;8.93;5.33;;;;;;;-3.46;100.00;98418.59;4142891;28;20214;-48
2023/12/04 04:29:59;;;;;;;6.57;5.30;;;;;;;-3.38;100.00;98415.94;4143134;28;21105;-47
2023/12/04 04:32:01;;;;;;;6.00;5.50;;;;;;;-3.43;100.00;98426.28;4141939;28;20205;-46
2023/12/04 04:34:02;;;;;;;5.50;5.10;;;;;;;-3.42;100.00;98412.75;4146838;28;20206;-46
2023/12/04 04:36:05;;;;;;;9.23;8.30;;;;;;;-3.44;100.00;98416.59;4145256;28;20290;-46
2023/12/04 04:38:06;;;;;;;6.33;5.77;;;;;;;-3.44;100.00;98405.91;4142190;28;20256;-46
2023/12/04 04:40:08;;;;;;;7.60;6.37;;;;;;;-3.30;100.00;98413.25;4139964;28;20659;-48
2023/12/04 04:42:10;;;;;;;6.30;5.93;;;;;;;-3.35;100.00;98407.59;4141452;28;20758;-46
2023/12/04 04:44:12;;;;;;;6.07;5.60;;;;;;;-3.46;100.00;98407.91;4139514;28;20236;-46
2023/12/04 04:46:13;;;;;;;5.93;5.53;;;;;;;-3.36;100.00;98420.13;4142006;28;20233;-46
2023/12/04 04:48:15;;;;;;;6.30;5.80;;;;;;;-3.52;100.00;98413.91;4137773;28;20233;-45
2023/12/04 04:50:18;;;;;;;5.50;5.10;;;;;;;-3.52;100.00;98413.91;4144438;28;20292;-46
2023/12/04 04:52:20;;;;;;;7.80;7.27;;;;;;;-3.39;100.00;98408.94;4142135;28;20299;-46
2023/12/04 04:54:22;;;;;;;5.57;5.17;;;;;;;-3.51;100.00;98404.91;4144988;28;20211;-46
2023/12/04 04:56:23;;;;;;;5.20;4.80;;;;;;;-3.53;100.00;98406.91;4147011;28;20233;-45
2023/12/04 04:58:25;;;;;;;8.43;7.93;;;;;;;-3.49;100.00;98403.72;4140638;28;20237;-46
2023/12/04 05:00:28;;;;;;;8.70;7.90;;;;;;;-3.33;100.00;98394.88;4142517;28;20791;-46
2023/12/04 05:02:31;;;;;;;5.03;4.53;;;;;;;-3.43;100.00;98392.38;4125159;28;20226;-46
2023/12/04 05:04:32;;;;;;;8.73;8.03;;;;;;;-3.32;100.00;98386.72;4142915;28;20218;-48
2023/12/04 05:06:34;;;;;;;6.40;5.93;;;;;;;-3.33;100.00;98376.16;4141828;28;20260;-45
2023/12/04 05:08:36;;;;;;;6.93;6.37;;;;;;;-3.22;100.00;98375.81;4127585;28;20210;-46
2023/12/04 05:10:39;;;;;;;7.13;6.63;;;;;;;-3.26;100.00;98367.28;4154065;28;20485;-48
2023/12/04 05:12:41;;;;;;;6.53;6.13;;;;;;;-3.19;100.00;98362.13;4140329;28;20259;-45
2023/12/04 05:14:42;;;;;;;6.27;5.77;;;;;;;-3.32;100.00;98356.44;4123499;28;20213;-45
2023/12/04 05:16:44;;;;;;;7.37;6.80;;;;;;;-3.18;100.00;98343.25;4139910;28;20286;-47
2023/12/04 05:18:46;;;;;;;5.43;5.03;;;;;;;-3.25;100.00;98352.09;4143927;28;20205;-45
2023/12/04 05:20:48;;;;;;;6.03;5.73;;;;;;;-3.44;100.00;98353.28;4138304;28;20206;-44
2023/12/04 05:22:50;;;;;;;6.57;6.13;;;;;;;-3.37;100.00;98358.78;4125207;28;20225;-44
2023/12/04 05:24:51;;;;;;;5.73;5.33;;;;;;;-3.49;100.00;98354.75;4137559;28;20674;-45
2023/12/04 05:26:53;;;;;;;5.50;5.27;;;;;;;-3.55;100.00;98352.78;4140156;28;20257;-44
2023/12/04 05:28:55;;;;;;;12.13;7.47;;;;;;;-3.47;100.00;98342.06;4133774;28;20225;-47
2023/12/04 05:30:56;;;;;;;6.27;5.77;;;;;;;-3.45;100.00;98345.41;4132779;28;20261;-46
2023/12/04 05:32:58;;;;;;;8.03;7.43;;;;;;;-3.37;100.00;98332.03;4138874;28;20206;-46
2023/12/04 05:35:00;;;;;;;7.33;6.73;;;;;;;-3.56;100.00;98337.72;4142658;28;20337;-45
2023/12/04 05:37:02;;;;;;;7.73;7.23;;;;;;;-3.57;100.00;98325.34;4142628;28;20630;-46
2023/12/04 05:39:04;;;;;;;6.67;6.27;;;;;;;-3.57;100.00;98325.34;4124756;28;20700;-45
2023/12/04 05:41:06;;;;;;;7.17;6.53;;;;;;;-3.57;100.00;98328.88;4137063;28;20213;-48
2023/12/04 05:43:08;;;;;;;5.60;5.20;;;;;;;-3.50;100.00;98327.22;4140545;28;20874;-47
2023/12/04 05:45:09;;;;;;;6.93;6.43;;;;;;;-3.40;100.00;98319.00;4139231;28;20636;-45
2023/12/04 05:47:11;;;;;;;6.20;5.70;;;;;;;-3.38;100.00;98306.31;4138795;28;20252;-46
2023/12/04 05:49:13;;;;;;;6.10;5.73;;;;;;;-3.31;100.00;98315.31;4122563;28;20201;-48
2023/12/04 05:51:15;;;;;;;6.07;5.60;;;;;;;-3.18;100.00;98304.94;4140085;28;20212;-45
2023/12/04 05:53:17;;;;;;;6.40;6.00;;;;;;;-3.37;100.00;98294.59;4139374;28;20197;-46
2023/12/04 05:55:20;;;;;;;6.80;6.10;;;;;;;-3.41;100.00;98293.28;4124727;28;20226;-45
2023/12/04 05:57:21;;;;;;;6.40;5.80;;;;;;;-3.38;100.00;98287.59;4141008;28;20218;-45
2023/12/04 05:59:24;;;;;;;8.47;5.97;;;;;;;-3.58;100.00;98278.25;4123789;28;20214;-49
2023/12/04 06:01:25;;;;;;;7.80;7.20;;;;;;;-3.52;100.00;98273.06;4140295;28;20236;-49
2023/12/04 06:03:27;;;;;;;8.30;7.40;;;;;;;-3.59;100.00;98281.94;4139423;28;20222;-45
2023/12/04 06:05:29;;;;;;;6.83;6.43;;;;;;;-3.58;100.00;98272.91;4137345;28;20279;-45
2023/12/04 06:07:30;;;;;;;7.53;7.07;;;;;;;-3.48;100.00;98270.91;4139541;28;20680;-45
2023/12/04 06:09:33;;;;;;;9.37;8.50;;;;;;;-3.38;100.00;98263.53;4120728;28;20214;-47
2023/12/04 06:11:34;;;;;;;7.90;7.27;;;;;;;-3.47;100.00;98267.22;4136177;28;20220;-45
2023/12/04 06:13:36;;;;;;;5.70;5.23;;;;;;;-3.47;100.00;98256.53;4136385;28;20770;-47
2023/12/04 06:15:38;;;;;;;7.17;6.70;;;;;;;-3.41;100.00;98255.84;4136848;28;20794;-45
2023/12/04 06:17:39;;;;;;;6.13;5.73;;;;;;;-3.29;100.00;98243.78;4140719;28;21986;-45
2023/12/04 06:19:41;;;;;;;5.93;5.40;;;;;;;-3.36;100.00;98237.44;4142684;28;20219;-44
2023/12/04 06:21:43;;;;;;;7.07;6.37;;;;;;;-3.36;100.00;98232.09;4139669;28;20206;-45
2023/12/04 06:23:45;;;;;;;6.97;6.47;;;;;;;-3.19;100.00;98231.06;4126155;28;20268;-45
2023/12/04 06:25:47;;;;;;;7.60;7.13;;;;;;;-3.23;100.00;98227.03;4135368;28;20236;-45
2023/12/04 06:27:51;;;;;;;7.60;7.00;;;;;;;-3.20;100.00;98216.84;4128149;28;20209;-48
2023/12/04 06:29:53;;;;;;;6.13;5.80;;;;;;;-3.24;100.00;98220.88;4143392;28;20239;-48
2023/12/04 06:31:55;;;;;;;6.07;5.53;;;;;;;-3.15;100.00;98216.34;4126127;28;20209;-47
2023/12/04 06:33:57;;;;;;;6.67;6.23;;;;;;;-3.23;100.00;98213.66;4145265;28;20993;-48
2023/12/04 06:35:59;;;;;;;5.37;4.90;;;;;;;-3.28;100.00;98211.53;4138762;28;20316;-46
2023/12/04 06:38:07;;;;;;;6.77;6.17;;;;;;;-3.29;100.00;98217.88;4140589;28;20350;-45
2023/12/04 06:40:11;;;;;;;11.47;6.83;;;;;;;-3.23;100.00;98211.00;4158249;28;20238;-49
2023/12/04 06:42:13;;;;;;;6.23;5.83;;;;;;;-3.19;100.00;98207.84;4146741;28;20739;-45
2023/12/04 06:44:15;;;;;;;7.33;6.87;;;;;;;-2.89;100.00;98208.88;4142235;28;20221;-48
2023/12/04 06:46:19;;;;;;;6.93;6.27;;;;;;;-3.14;100.00;98207.31;4150179;28;20838;-46
2023/12/04 06:48:21;;;;;;;8.27;7.77;;;;;;;-3.05;100.00;98200.91;4142767;28;20832;-45
2023/12/04 06:50:23;;;;;;;6.07;5.67;;;;;;;-2.95;100.00;98204.25;4133255;28;20314;-45
2023/12/04 06:52:26;;;;;;;7.83;7.30;;;;;;;-3.00;100.00;98206.59;4148303;23;20347;-68
2023/12/04 06:54:29;;;;;;;7.10;6.70;;;;;;;-3.01;100.00;98203.06;4166117;28;20204;-68
2023/12/04 06:56:31;;;;;;;6.97;6.47;;;;;;;-3.00;100.00;98195.88;4162809;28;20255;-66
2023/12/04 06:58:33;;;;;;;4.87;4.53;;;;;;;-2.90;100.00;98201.84;4161114;28;20331;-66
2023/12/04 07:00:36;;;;;;;11.43;6.07;;;;;;;-2.89;100.00;98198.16;4162945;28;20205;-66
2023/12/04 07:02:38;;;;;;;4.77;4.47;;;;;;;-2.85;100.00;98194.13;4158355;28;20584;-66
2023/12/04 07:04:41;;;;;;;19.97;6.03;;;;;;;-2.80;100.00;98197.94;4159802;28;20213;-67
2023/12/04 07:06:43;;;;;;;5.93;5.03;;;;;;;-2.78;100.00;98206.66;4162156;28;20645;-66
2023/12/04 07:08:46;;;;;;;7.27;6.00;;;;;;;-2.70;100.00;98198.59;4155603;28;20201;-67
2023/12/04 07:10:48;;;;;;;4.37;4.07;;;;;;;-2.77;100.00;98202.97;4154335;28;20306;-66
2023/12/04 07:12:50;;;;;;;7.20;6.77;;;;;;;-2.73;100.00;98203.44;4154411;28;20209;-69
2023/12/04 07:14:52;;;;;;;5.63;5.17;;;;;;;-2.72;100.00;98205.13;4156185;28;20222;-66
2023/12/04 07:16:54;;;;;;;7.43;6.70;;;;;;;-2.70;100.00;98208.44;4159126;28;20240;-66
2023/12/04 07:18:57;;;;;;;4.87;4.57;;;;;;;-2.68;100.00;98204.59;4161176;28;20759;-66
2023/12/04 07:20:59;;;;;;;6.37;5.83;;;;;;;-2.64;100.00;98202.41;4162539;28;20208;-66
2023/12/04 07:23:01;;;;;;;5.63;5.13;;;;;;;-2.58;100.00;98209.72;4161868;28;20316;-67
2023/12/04 07:25:07;;;;;;;5.40;4.70;;;;;;;-2.62;100.00;98208.44;4144476;28;20776;-67
2023/12/04 07:27:09;;;;;;;7.37;6.77;;;;;;;-2.62;100.00;98206.56;4146791;28;20968;-66
2023/12/04 07:29:11;;;;;;;5.27;4.77;;;;;;;-2.69;100.00;98210.09;4141078;28;20317;-66
2023/12/04 07:31:14;;;;;;;5.50;5.10;;;;;;;-2.56;100.00;98207.69;4156630;28;20204;-66
2023/12/04 07:33:17;;;;;;;4.17;3.90;;;;;;;-2.52;100.00;98222.41;4158630;28;20277;-66
2023/12/04 07:35:19;;;;;;;5.03;4.60;;;;;;;-2.58;100.00;98207.06;4160607;28;20319;-67
2023/12/04 07:37:21;;;;;;;7.13;6.63;;;;;;;-2.63;100.00;98207.59;4158091;28;20813;-68
2023/12/04 07:39:23;;;;;;;7.63;7.03;;;;;;;-2.71;100.00;98201.44;4161554;28;20223;-66
2023/12/04 07:41:25;;;;;;;6.30;5.73;;;;;;;-2.50;100.00;98201.63;4147012;28;20201;-66
2023/12/04 07:43:27;;;;;;;6.10;5.70;;;;;;;-2.53;100.00;98204.69;4135709;28;20701;-66
2023/12/04 07:45:29;;;;;;;5.33;4.93;;;;;;;-2.52;100.00;98201.00;4160689;28;20283;-66
2023/12/04 07:47:31;;;;;;;7.63;6.13;;;;;;;-2.56;100.00;98202.34;4152577;28;20205;-67
2023/12/04 07:49:33;;;;;;;7.27;5.07;;;;;;;-2.52;100.00;98196.50;4157069;28;20344;-67
2023/12/04 07:51:35;;;;;;;6.93;6.33;;;;;;;-2.48;100.00;98199.66;4156263;28;20263;-67
2023/12/04 07:53:37;;;;;;;4.20;3.87;;;;;;;-2.45;100.00;98201.94;4159494;28;20213;-67
2023/12/04 07:55:38;;;;;;;5.73;5.00;;;;;;;-2.39;100.00;98195.91;4153483;28;20688;-67
2023/12/04 07:57:41;;;;;;;6.23;5.70;;;;;;;-2.38;100.00;98192.19;4158167;28;20394;-67
2023/12/04 07:59:43;;;;;;;10.13;7.37;;;;;;;-2.56;100.00;98200.50;4142297;28;20209;-67
2023/12/04 08:01:46;;;;;;;4.83;4.50;;;;;;;-2.31;100.00;98195.84;4143378;28;20210;-67
2023/12/04 08:03:48;;;;;;;7.97;7.37;;;;;;;-2.37;100.00;98189.34;4156840;28;20256;-67
2023/12/04 08:05:51;;;;;;;5.80;5.30;;;;;;;-2.29;100.00;98183.94;4157913;28;20260;-67
2023/12/04 08:07:53;;;;;;;6.03;5.67;;;;;;;-2.22;100.00;98186.75;4141717;28;20210;-66
2023/12/04 08:09:55;;;;;;;4.57;4.37;;;;;;;-2.15;100.00;98188.53;4157817;28;20276;-67
2023/12/04 08:11:57;;;;;;;5.60;5.17;;;;;;;-2.10;100.00;98186.16;4154375;28;20980;-68
2023/12/04 08:13:59;;;;;;;6.30;5.70;;;;;;;-2.01;100.00;98186.91;4157245;28;20203;-69
2023/12/04 08:16:01;;;;;;;5.83;4.63;;;;;;;-1.99;100.00;98184.88;4156320;28;20228;-66
2023/12/04 08:18:03;;;;;;;6.07;5.67;;;;;;;-2.11;100.00;98191.69;4156149;28;20218;-68
2023/12/04 08:20:06;;;;;;;5.63;5.23;;;;;;;-2.02;100.00;98187.94;4153968;28;20271;-66
2023/12/04 08:22:08;;;;;;;6.07;5.30;;;;;;;-2.06;100.00;98181.25;4142133;28;20210;-66
2023/12/04 08:24:11;;;;;;;5.10;4.80;;;;;;;-1.92;100.00;98172.44;4158283;28;20216;-66
2023/12/04 08:26:14;;;;;;;6.23;5.17;;;;;;;-1.98;100.00;98173.16;4157614;28;20225;-66
2023/12/04 08:28:16;;;;;;;7.17;4.93;;;;;;;-1.90;100.00;98170.38;4143101;28;20308;-67
2023/12/04 08:30:18;;;;;;;4.63;4.37;;;;;;;-2.06;100.00;98176.75;4158485;28;20201;-66
2023/12/04 08:32:21;;;;;;;6.70;5.33;;;;;;;-2.02;100.00;98178.03;4141060;28;20244;-66
2023/12/04 08:34:23;;;;;;;4.63;4.33;;;;;;;-1.91;100.00;98171.41;4155183;28;20208;-66
2023/12/04 08:36:26;;;;;;;5.40;5.00;;;;;;;-1.97;100.00;98172.13;4159281;28;20707;-66
2023/12/04 08:38:28;;;;;;;4.87;4.40;;;;;;;-1.96;100.00;98168.44;4155231;28;20714;-66
2023/12/04 08:40:30;;;;;;;5.47;5.07;;;;;;;-1.74;100.00;98167.59;4157450;28;20868;-66
2023/12/04 08:42:32;;;;;;;4.30;3.90;;;;;;;-1.82;100.00;98178.38;4157375;28;20267;-67
2023/12/04 08:44:35;;;;;;;5.50;4.73;;;;;;;-1.82;100.00;98162.31;4157802;28;20219;-67
2023/12/04 08:46:37;;;;;;;5.90;5.37;;;;;;;-1.81;100.00;98169.31;4155810;28;20274;-66
2023/12/04 08:48:41;;;;;;;5.23;4.83;;;;;;;-1.76;100.00;98161.53;4157464;28;20204;-66
2023/12/04 08:50:45;;;;;;;6.63;3.73;;;;;;;-1.77;100.00;98160.72;4158708;28;20261;-67
2023/12/04 08:52:48;;;;;;;5.20;4.77;;;;;;;-1.78;100.00;98158.22;4141542;28;20215;-67
2023/12/04 08:54:51;;;;;;;5.30;4.80;;;;;;;-1.87;100.00;98165.50;4151334;28;20207;-67
2023/12/04 08:56:56;;;;;;;4.33;4.10;;;;;;;-1.83;100.00;98166.81;4142651;28;20229;-67
2023/12/04 08:58:58;;;;;;;4.60;4.30;;;;;;;-1.76;100.00;98166.91;4152324;28;20604;-67
2023/12/04 09:01:01;;;;;;;5.27;4.83;;;;;;;-1.74;100.00;98172.94;4157340;28;20219;-68
2023/12/04 09:03:03;;;;;;;4.63;4.23;;;;;;;-1.72;100.00;98173.59;4158506;28;20259;-67
2023/12/04 09:05:13;;;;;;;5.90;5.43;;;;;;;-1.66;100.00;98163.00;4138655;28;21394;-66
2023/12/04 09:07:16;;;;;;;5.63;5.13;;;;;;;-1.72;100.00;98179.78;4152474;28;20209;-66
2023/12/04 09:09:21;;;;;;;4.00;3.70;;;;;;;-1.74;100.00;98183.66;4151383;28;20280;-66
2023/12/04 09:11:25;;;;;;;3.37;3.17;;;;;;;-1.68;100.00;98180.28;4155751;28;20205;-66
2023/12/04 09:13:30;;;;;;;4.73;4.40;;;;;;;-1.68;100.00;98175.72;4143101;28;20209;-66
2023/12/04 09:15:33;;;;;;;5.23;4.60;;;;;;;-1.60;100.00;98175.63;4156922;28;20230;-67
2023/12/04 09:17:39;;;;;;;4.30;3.97;;;;;;;-1.60;100.00;98181.00;4164825;28;20518;-67
2023/12/04 09:19:46;;;;;;;4.63;4.33;;;;;;;-1.59;100.00;98177.34;4140448;28;20213;-67
2023/12/04 09:21:48;;;;;;;5.63;5.23;;;;;;;-1.41;100.00;98177.78;4150274;28;20209;-66
2023/12/04 09:24:03;;;;;;;5.07;3.97;;;;;;;-1.52;100.00;98164.84;4154749;28;20228;-66
2023/12/04 09:26:05;;;;;;;13.40;4.30;;;;;;;-1.60;100.00;98177.50;4155263;28;20307;-66
2023/12/04 09:28:07;;;;;;;3.47;3.13;;;;;;;-1.58;100.00;98175.47;4157575;28;20205;-67